sensor_id;sensor_type;location;lat;lon;timestamp;P1;durP1;ratioP1;P2;durP2;ratioP2
11488;SDS011;5801;50.804;12.638;2024-02-26T00:01:49;13.30;;;8.20;;
11488;SDS011;5801;50.804;12.638;2024-02-26T00:04:15;16.45;;;7.93;;
11488;SDS011;5801;50.804;12.638;2024-02-26T00:06:41;14.32;;;7.90;;
11488;SDS011;5801;50.804;12.638;2024-02-26T00:09:08;15.63;;;8.20;;
11488;SDS011;5801;50.804;12.638;2024-02-26T00:11:37;14.52;;;7.93;;
11488;SDS011;5801;50.804;12.638;2024-02-26T00:14:03;14.88;;;7.18;;
11488;SDS011;5801;50.804;12.638;2024-02-26T00:16:29;16.83;;;7.78;;
11488;SDS011;5801;50.804;12.638;2024-02-26T00:18:55;15.23;;;7.55;;
11488;SDS011;5801;50.804;12.638;2024-02-26T00:21:21;13.82;;;7.22;;
11488;SDS011;5801;50.804;12.638;2024-02-26T00:23:47;12.85;;;7.80;;
11488;SDS011;5801;50.804;12.638;2024-02-26T00:26:14;13.43;;;7.72;;
11488;SDS011;5801;50.804;12.638;2024-02-26T00:28:40;13.30;;;7.72;;
11488;SDS011;5801;50.804;12.638;2024-02-26T00:31:06;18.17;;;8.32;;
11488;SDS011;5801;50.804;12.638;2024-02-26T00:33:32;14.02;;;7.55;;
11488;SDS011;5801;50.804;12.638;2024-02-26T00:35:58;13.52;;;7.22;;
11488;SDS011;5801;50.804;12.638;2024-02-26T00:38:24;15.48;;;7.07;;
11488;SDS011;5801;50.804;12.638;2024-02-26T00:40:50;14.07;;;7.50;;
11488;SDS011;5801;50.804;12.638;2024-02-26T00:43:17;12.27;;;7.88;;
11488;SDS011;5801;50.804;12.638;2024-02-26T00:45:43;15.77;;;7.40;;
11488;SDS011;5801;50.804;12.638;2024-02-26T00:48:09;11.75;;;7.18;;
11488;SDS011;5801;50.804;12.638;2024-02-26T00:50:35;14.23;;;6.50;;
11488;SDS011;5801;50.804;12.638;2024-02-26T00:53:01;11.65;;;6.22;;
11488;SDS011;5801;50.804;12.638;2024-02-26T00:55:27;12.30;;;6.45;;
11488;SDS011;5801;50.804;12.638;2024-02-26T00:57:53;16.20;;;7.82;;
11488;SDS011;5801;50.804;12.638;2024-02-26T01:00:19;12.45;;;6.50;;
11488;SDS011;5801;50.804;12.638;2024-02-26T01:02:46;13.93;;;6.63;;
11488;SDS011;5801;50.804;12.638;2024-02-26T01:05:12;10.20;;;6.57;;
11488;SDS011;5801;50.804;12.638;2024-02-26T01:07:38;10.13;;;6.82;;
11488;SDS011;5801;50.804;12.638;2024-02-26T01:10:04;11.40;;;6.35;;
11488;SDS011;5801;50.804;12.638;2024-02-26T01:12:32;10.15;;;5.90;;
11488;SDS011;5801;50.804;12.638;2024-02-26T01:14:59;13.00;;;6.50;;
11488;SDS011;5801;50.804;12.638;2024-02-26T01:17:25;11.95;;;6.35;;
11488;SDS011;5801;50.804;12.638;2024-02-26T01:19:51;12.48;;;6.50;;
11488;SDS011;5801;50.804;12.638;2024-02-26T01:22:18;12.98;;;6.45;;
11488;SDS011;5801;50.804;12.638;2024-02-26T01:24:44;12.27;;;6.90;;
11488;SDS011;5801;50.804;12.638;2024-02-26T01:27:10;15.10;;;6.72;;
11488;SDS011;5801;50.804;12.638;2024-02-26T01:29:37;14.27;;;7.05;;
11488;SDS011;5801;50.804;12.638;2024-02-26T01:32:03;12.98;;;5.72;;
11488;SDS011;5801;50.804;12.638;2024-02-26T01:34:30;12.57;;;6.38;;
11488;SDS011;5801;50.804;12.638;2024-02-26T01:36:56;15.90;;;6.60;;
11488;SDS011;5801;50.804;12.638;2024-02-26T01:39:22;12.40;;;6.53;;
11488;SDS011;5801;50.804;12.638;2024-02-26T01:41:47;18.42;;;7.55;;
11488;SDS011;5801;50.804;12.638;2024-02-26T01:44:13;14.50;;;7.10;;
11488;SDS011;5801;50.804;12.638;2024-02-26T01:46:39;14.35;;;6.55;;
11488;SDS011;5801;50.804;12.638;2024-02-26T01:49:06;15.63;;;7.53;;
11488;SDS011;5801;50.804;12.638;2024-02-26T01:51:33;14.35;;;6.53;;
11488;SDS011;5801;50.804;12.638;2024-02-26T01:54:01;15.68;;;7.03;;
11488;SDS011;5801;50.804;12.638;2024-02-26T01:56:28;15.23;;;7.22;;
11488;SDS011;5801;50.804;12.638;2024-02-26T01:58:57;11.38;;;6.35;;
11488;SDS011;5801;50.804;12.638;2024-02-26T02:01:27;19.08;;;6.80;;
11488;SDS011;5801;50.804;12.638;2024-02-26T02:03:55;11.23;;;5.55;;
11488;SDS011;5801;50.804;12.638;2024-02-26T02:06:23;13.63;;;6.35;;
11488;SDS011;5801;50.804;12.638;2024-02-26T02:08:49;11.45;;;6.28;;
11488;SDS011;5801;50.804;12.638;2024-02-26T02:11:16;11.20;;;5.85;;
11488;SDS011;5801;50.804;12.638;2024-02-26T02:13:42;14.60;;;7.78;;
11488;SDS011;5801;50.804;12.638;2024-02-26T02:16:08;12.70;;;6.80;;
11488;SDS011;5801;50.804;12.638;2024-02-26T02:18:34;19.80;;;7.32;;
11488;SDS011;5801;50.804;12.638;2024-02-26T02:21:00;14.70;;;7.10;;
11488;SDS011;5801;50.804;12.638;2024-02-26T02:23:26;13.60;;;7.25;;
11488;SDS011;5801;50.804;12.638;2024-02-26T02:25:52;12.90;;;7.13;;
11488;SDS011;5801;50.804;12.638;2024-02-26T02:28:20;12.93;;;7.15;;
11488;SDS011;5801;50.804;12.638;2024-02-26T02:30:46;15.73;;;7.70;;
11488;SDS011;5801;50.804;12.638;2024-02-26T02:33:13;17.95;;;7.97;;
11488;SDS011;5801;50.804;12.638;2024-02-26T02:35:40;14.43;;;7.70;;
11488;SDS011;5801;50.804;12.638;2024-02-26T02:38:06;17.13;;;8.00;;
11488;SDS011;5801;50.804;12.638;2024-02-26T02:40:32;18.20;;;8.45;;
11488;SDS011;5801;50.804;12.638;2024-02-26T02:42:58;17.23;;;9.40;;
11488;SDS011;5801;50.804;12.638;2024-02-26T02:45:25;19.15;;;8.80;;
11488;SDS011;5801;50.804;12.638;2024-02-26T02:47:50;18.10;;;7.95;;
11488;SDS011;5801;50.804;12.638;2024-02-26T02:50:16;17.40;;;9.20;;
11488;SDS011;5801;50.804;12.638;2024-02-26T02:52:42;17.45;;;8.95;;
11488;SDS011;5801;50.804;12.638;2024-02-26T02:55:08;16.52;;;8.73;;
11488;SDS011;5801;50.804;12.638;2024-02-26T02:57:34;19.05;;;9.18;;
11488;SDS011;5801;50.804;12.638;2024-02-26T03:00:06;19.27;;;8.55;;
11488;SDS011;5801;50.804;12.638;2024-02-26T03:02:33;18.17;;;8.65;;
11488;SDS011;5801;50.804;12.638;2024-02-26T03:05:00;20.73;;;9.93;;
11488;SDS011;5801;50.804;12.638;2024-02-26T03:07:30;18.83;;;9.18;;
11488;SDS011;5801;50.804;12.638;2024-02-26T03:09:55;18.80;;;9.55;;
11488;SDS011;5801;50.804;12.638;2024-02-26T03:12:21;19.23;;;9.48;;
11488;SDS011;5801;50.804;12.638;2024-02-26T03:14:47;19.55;;;10.02;;
11488;SDS011;5801;50.804;12.638;2024-02-26T03:17:13;22.17;;;9.10;;
11488;SDS011;5801;50.804;12.638;2024-02-26T03:19:39;18.38;;;9.40;;
11488;SDS011;5801;50.804;12.638;2024-02-26T03:22:06;18.85;;;8.98;;
11488;SDS011;5801;50.804;12.638;2024-02-26T03:24:32;18.05;;;9.43;;
11488;SDS011;5801;50.804;12.638;2024-02-26T03:26:58;15.55;;;7.10;;
11488;SDS011;5801;50.804;12.638;2024-02-26T03:29:24;16.42;;;8.15;;
11488;SDS011;5801;50.804;12.638;2024-02-26T03:31:50;16.02;;;8.23;;
11488;SDS011;5801;50.804;12.638;2024-02-26T03:34:16;13.85;;;7.28;;
11488;SDS011;5801;50.804;12.638;2024-02-26T03:36:43;19.23;;;8.52;;
11488;SDS011;5801;50.804;12.638;2024-02-26T03:39:10;15.90;;;8.55;;
11488;SDS011;5801;50.804;12.638;2024-02-26T03:41:36;13.65;;;7.70;;
11488;SDS011;5801;50.804;12.638;2024-02-26T03:44:02;18.17;;;8.30;;
11488;SDS011;5801;50.804;12.638;2024-02-26T03:46:28;17.83;;;8.52;;
11488;SDS011;5801;50.804;12.638;2024-02-26T03:48:54;12.77;;;6.85;;
11488;SDS011;5801;50.804;12.638;2024-02-26T03:51:20;18.67;;;8.10;;
11488;SDS011;5801;50.804;12.638;2024-02-26T03:53:45;13.07;;;5.93;;
11488;SDS011;5801;50.804;12.638;2024-02-26T03:56:12;12.75;;;6.95;;
11488;SDS011;5801;50.804;12.638;2024-02-26T03:58:38;12.82;;;6.88;;
11488;SDS011;5801;50.804;12.638;2024-02-26T04:01:06;12.82;;;6.88;;
11488;SDS011;5801;50.804;12.638;2024-02-26T04:03:33;12.15;;;7.07;;
11488;SDS011;5801;50.804;12.638;2024-02-26T04:05:59;14.55;;;6.88;;
11488;SDS011;5801;50.804;12.638;2024-02-26T04:08:25;12.50;;;6.85;;
11488;SDS011;5801;50.804;12.638;2024-02-26T04:10:51;11.43;;;6.90;;
11488;SDS011;5801;50.804;12.638;2024-02-26T04:13:18;10.93;;;6.35;;
11488;SDS011;5801;50.804;12.638;2024-02-26T04:15:45;13.60;;;6.18;;
11488;SDS011;5801;50.804;12.638;2024-02-26T04:18:11;15.23;;;6.70;;
11488;SDS011;5801;50.804;12.638;2024-02-26T04:20:37;11.60;;;6.28;;
11488;SDS011;5801;50.804;12.638;2024-02-26T04:23:03;12.55;;;6.18;;
11488;SDS011;5801;50.804;12.638;2024-02-26T04:25:29;13.10;;;5.55;;
11488;SDS011;5801;50.804;12.638;2024-02-26T04:27:55;14.32;;;6.75;;
11488;SDS011;5801;50.804;12.638;2024-02-26T04:30:21;11.90;;;6.85;;
11488;SDS011;5801;50.804;12.638;2024-02-26T04:32:47;13.57;;;6.53;;
11488;SDS011;5801;50.804;12.638;2024-02-26T04:35:13;11.57;;;6.18;;
11488;SDS011;5801;50.804;12.638;2024-02-26T04:37:39;14.88;;;7.20;;
11488;SDS011;5801;50.804;12.638;2024-02-26T04:40:05;11.77;;;6.18;;
11488;SDS011;5801;50.804;12.638;2024-02-26T04:42:32;12.93;;;6.18;;
11488;SDS011;5801;50.804;12.638;2024-02-26T04:44:58;13.38;;;6.47;;
11488;SDS011;5801;50.804;12.638;2024-02-26T04:47:24;14.70;;;5.63;;
11488;SDS011;5801;50.804;12.638;2024-02-26T04:49:50;13.82;;;6.30;;
11488;SDS011;5801;50.804;12.638;2024-02-26T04:52:17;10.32;;;5.63;;
11488;SDS011;5801;50.804;12.638;2024-02-26T04:54:43;14.30;;;6.00;;
11488;SDS011;5801;50.804;12.638;2024-02-26T04:57:09;13.80;;;6.53;;
11488;SDS011;5801;50.804;12.638;2024-02-26T04:59:35;11.38;;;6.00;;
11488;SDS011;5801;50.804;12.638;2024-02-26T05:02:01;8.80;;;6.22;;
11488;SDS011;5801;50.804;12.638;2024-02-26T05:04:27;12.88;;;6.38;;
11488;SDS011;5801;50.804;12.638;2024-02-26T05:06:53;13.35;;;5.38;;
11488;SDS011;5801;50.804;12.638;2024-02-26T05:09:19;16.55;;;6.90;;
11488;SDS011;5801;50.804;12.638;2024-02-26T05:11:45;14.27;;;7.53;;
11488;SDS011;5801;50.804;12.638;2024-02-26T05:14:10;14.63;;;6.57;;
11488;SDS011;5801;50.804;12.638;2024-02-26T05:16:36;9.82;;;5.78;;
11488;SDS011;5801;50.804;12.638;2024-02-26T05:19:03;14.70;;;6.18;;
11488;SDS011;5801;50.804;12.638;2024-02-26T05:21:29;10.85;;;6.55;;
11488;SDS011;5801;50.804;12.638;2024-02-26T05:23:55;13.73;;;7.82;;
11488;SDS011;5801;50.804;12.638;2024-02-26T05:26:21;14.00;;;6.70;;
11488;SDS011;5801;50.804;12.638;2024-02-26T05:28:48;15.43;;;6.78;;
11488;SDS011;5801;50.804;12.638;2024-02-26T05:31:14;12.77;;;7.03;;
11488;SDS011;5801;50.804;12.638;2024-02-26T05:33:41;13.73;;;6.65;;
11488;SDS011;5801;50.804;12.638;2024-02-26T05:36:06;12.30;;;6.40;;
11488;SDS011;5801;50.804;12.638;2024-02-26T05:38:32;11.98;;;6.10;;
11488;SDS011;5801;50.804;12.638;2024-02-26T05:40:58;10.85;;;6.80;;
11488;SDS011;5801;50.804;12.638;2024-02-26T05:43:25;13.63;;;6.20;;
11488;SDS011;5801;50.804;12.638;2024-02-26T05:45:51;11.43;;;6.28;;
11488;SDS011;5801;50.804;12.638;2024-02-26T05:48:17;12.68;;;6.95;;
11488;SDS011;5801;50.804;12.638;2024-02-26T05:50:44;15.98;;;6.75;;
11488;SDS011;5801;50.804;12.638;2024-02-26T05:53:11;14.70;;;7.32;;
11488;SDS011;5801;50.804;12.638;2024-02-26T05:55:36;9.38;;;5.63;;
11488;SDS011;5801;50.804;12.638;2024-02-26T05:58:03;13.00;;;6.57;;
11488;SDS011;5801;50.804;12.638;2024-02-26T06:00:29;13.98;;;7.10;;
11488;SDS011;5801;50.804;12.638;2024-02-26T06:02:55;14.40;;;6.75;;
11488;SDS011;5801;50.804;12.638;2024-02-26T06:05:21;13.35;;;5.97;;
11488;SDS011;5801;50.804;12.638;2024-02-26T06:07:47;13.80;;;5.75;;
11488;SDS011;5801;50.804;12.638;2024-02-26T06:10:13;10.95;;;6.53;;
11488;SDS011;5801;50.804;12.638;2024-02-26T06:12:39;9.75;;;6.25;;
11488;SDS011;5801;50.804;12.638;2024-02-26T06:15:05;15.15;;;7.00;;
11488;SDS011;5801;50.804;12.638;2024-02-26T06:17:32;12.55;;;6.88;;
11488;SDS011;5801;50.804;12.638;2024-02-26T06:19:58;18.90;;;8.43;;
11488;SDS011;5801;50.804;12.638;2024-02-26T06:22:24;13.77;;;6.93;;
11488;SDS011;5801;50.804;12.638;2024-02-26T06:24:50;14.77;;;6.45;;
11488;SDS011;5801;50.804;12.638;2024-02-26T06:27:16;11.95;;;6.30;;
11488;SDS011;5801;50.804;12.638;2024-02-26T06:29:42;18.75;;;6.85;;
11488;SDS011;5801;50.804;12.638;2024-02-26T06:32:08;9.85;;;5.68;;
11488;SDS011;5801;50.804;12.638;2024-02-26T06:34:34;11.48;;;7.30;;
11488;SDS011;5801;50.804;12.638;2024-02-26T06:37:00;13.35;;;6.72;;
11488;SDS011;5801;50.804;12.638;2024-02-26T06:39:28;18.05;;;8.35;;
11488;SDS011;5801;50.804;12.638;2024-02-26T06:41:54;19.00;;;8.85;;
11488;SDS011;5801;50.804;12.638;2024-02-26T06:44:25;35.47;;;11.98;;
11488;SDS011;5801;50.804;12.638;2024-02-26T06:46:56;93.57;;;30.90;;
11488;SDS011;5801;50.804;12.638;2024-02-26T06:49:23;81.75;;;27.08;;
11488;SDS011;5801;50.804;12.638;2024-02-26T06:51:49;71.55;;;26.67;;
11488;SDS011;5801;50.804;12.638;2024-02-26T06:54:15;61.25;;;19.50;;
11488;SDS011;5801;50.804;12.638;2024-02-26T06:56:41;37.95;;;16.48;;
11488;SDS011;5801;50.804;12.638;2024-02-26T06:59:08;28.63;;;11.98;;
11488;SDS011;5801;50.804;12.638;2024-02-26T07:01:34;24.25;;;10.15;;
11488;SDS011;5801;50.804;12.638;2024-02-26T07:04:00;35.35;;;14.43;;
11488;SDS011;5801;50.804;12.638;2024-02-26T07:06:27;33.38;;;12.98;;
11488;SDS011;5801;50.804;12.638;2024-02-26T07:08:52;35.72;;;10.93;;
11488;SDS011;5801;50.804;12.638;2024-02-26T07:11:18;30.60;;;11.82;;
11488;SDS011;5801;50.804;12.638;2024-02-26T07:13:45;28.27;;;12.05;;
11488;SDS011;5801;50.804;12.638;2024-02-26T07:16:11;26.63;;;11.82;;
11488;SDS011;5801;50.804;12.638;2024-02-26T07:18:38;19.52;;;10.18;;
11488;SDS011;5801;50.804;12.638;2024-02-26T07:21:04;22.08;;;11.32;;
11488;SDS011;5801;50.804;12.638;2024-02-26T07:23:30;22.08;;;11.65;;
11488;SDS011;5801;50.804;12.638;2024-02-26T07:25:56;20.00;;;10.27;;
11488;SDS011;5801;50.804;12.638;2024-02-26T07:28:22;19.45;;;10.05;;
11488;SDS011;5801;50.804;12.638;2024-02-26T07:30:49;15.52;;;9.40;;
11488;SDS011;5801;50.804;12.638;2024-02-26T07:33:15;16.35;;;9.98;;
11488;SDS011;5801;50.804;12.638;2024-02-26T07:35:40;19.80;;;10.70;;
11488;SDS011;5801;50.804;12.638;2024-02-26T07:38:07;17.20;;;9.60;;
11488;SDS011;5801;50.804;12.638;2024-02-26T07:40:33;15.23;;;9.07;;
11488;SDS011;5801;50.804;12.638;2024-02-26T07:42:59;14.43;;;9.25;;
11488;SDS011;5801;50.804;12.638;2024-02-26T07:45:25;20.70;;;10.80;;
11488;SDS011;5801;50.804;12.638;2024-02-26T07:47:51;15.63;;;9.52;;
11488;SDS011;5801;50.804;12.638;2024-02-26T07:50:17;17.67;;;9.75;;
11488;SDS011;5801;50.804;12.638;2024-02-26T07:52:44;14.25;;;9.23;;
11488;SDS011;5801;50.804;12.638;2024-02-26T07:55:10;14.52;;;9.52;;
11488;SDS011;5801;50.804;12.638;2024-02-26T07:57:36;16.40;;;9.30;;
11488;SDS011;5801;50.804;12.638;2024-02-26T08:00:02;15.10;;;8.85;;
11488;SDS011;5801;50.804;12.638;2024-02-26T08:02:28;13.68;;;8.52;;
11488;SDS011;5801;50.804;12.638;2024-02-26T08:04:54;13.07;;;9.20;;
11488;SDS011;5801;50.804;12.638;2024-02-26T08:07:20;15.93;;;9.82;;
11488;SDS011;5801;50.804;12.638;2024-02-26T08:09:47;14.70;;;8.52;;
11488;SDS011;5801;50.804;12.638;2024-02-26T08:12:12;12.75;;;8.60;;
11488;SDS011;5801;50.804;12.638;2024-02-26T08:14:39;16.52;;;10.13;;
11488;SDS011;5801;50.804;12.638;2024-02-26T08:17:06;16.20;;;8.75;;
11488;SDS011;5801;50.804;12.638;2024-02-26T08:19:33;16.65;;;10.07;;
11488;SDS011;5801;50.804;12.638;2024-02-26T08:22:00;15.05;;;9.15;;
11488;SDS011;5801;50.804;12.638;2024-02-26T08:24:27;14.77;;;8.73;;
11488;SDS011;5801;50.804;12.638;2024-02-26T08:26:53;13.25;;;8.35;;
11488;SDS011;5801;50.804;12.638;2024-02-26T08:29:19;19.52;;;9.38;;
11488;SDS011;5801;50.804;12.638;2024-02-26T08:31:45;13.73;;;8.95;;
11488;SDS011;5801;50.804;12.638;2024-02-26T08:34:11;13.02;;;7.60;;
11488;SDS011;5801;50.804;12.638;2024-02-26T08:36:37;11.88;;;7.50;;
11488;SDS011;5801;50.804;12.638;2024-02-26T08:39:03;11.10;;;7.13;;
11488;SDS011;5801;50.804;12.638;2024-02-26T08:41:29;9.98;;;7.15;;
11488;SDS011;5801;50.804;12.638;2024-02-26T08:43:55;9.85;;;6.95;;
11488;SDS011;5801;50.804;12.638;2024-02-26T08:46:20;11.65;;;7.30;;
11488;SDS011;5801;50.804;12.638;2024-02-26T08:48:47;9.82;;;6.68;;
11488;SDS011;5801;50.804;12.638;2024-02-26T08:51:13;9.48;;;6.68;;
11488;SDS011;5801;50.804;12.638;2024-02-26T08:53:39;11.35;;;6.68;;
11488;SDS011;5801;50.804;12.638;2024-02-26T08:56:04;12.13;;;7.35;;
11488;SDS011;5801;50.804;12.638;2024-02-26T08:58:30;12.95;;;6.63;;
11488;SDS011;5801;50.804;12.638;2024-02-26T09:00:57;10.60;;;7.03;;
11488;SDS011;5801;50.804;12.638;2024-02-26T09:03:22;12.27;;;8.38;;
11488;SDS011;5801;50.804;12.638;2024-02-26T09:05:48;12.48;;;8.60;;
11488;SDS011;5801;50.804;12.638;2024-02-26T09:08:14;13.30;;;8.25;;
11488;SDS011;5801;50.804;12.638;2024-02-26T09:10:41;12.60;;;8.52;;
11488;SDS011;5801;50.804;12.638;2024-02-26T09:13:07;13.48;;;8.93;;
11488;SDS011;5801;50.804;12.638;2024-02-26T09:15:33;16.98;;;9.27;;
11488;SDS011;5801;50.804;12.638;2024-02-26T09:17:59;18.60;;;9.57;;
11488;SDS011;5801;50.804;12.638;2024-02-26T09:20:25;13.82;;;9.15;;
11488;SDS011;5801;50.804;12.638;2024-02-26T09:22:51;12.27;;;8.82;;
11488;SDS011;5801;50.804;12.638;2024-02-26T09:25:17;11.13;;;7.25;;
11488;SDS011;5801;50.804;12.638;2024-02-26T09:27:43;11.48;;;7.00;;
11488;SDS011;5801;50.804;12.638;2024-02-26T09:30:10;11.75;;;7.53;;
11488;SDS011;5801;50.804;12.638;2024-02-26T09:32:37;11.50;;;6.88;;
11488;SDS011;5801;50.804;12.638;2024-02-26T09:35:03;10.30;;;6.93;;
11488;SDS011;5801;50.804;12.638;2024-02-26T09:37:29;11.57;;;6.80;;
11488;SDS011;5801;50.804;12.638;2024-02-26T09:39:55;12.40;;;7.13;;
11488;SDS011;5801;50.804;12.638;2024-02-26T09:42:21;12.63;;;7.20;;
11488;SDS011;5801;50.804;12.638;2024-02-26T09:44:51;10.70;;;7.60;;
11488;SDS011;5801;50.804;12.638;2024-02-26T09:47:23;10.10;;;7.22;;
11488;SDS011;5801;50.804;12.638;2024-02-26T09:49:52;11.32;;;6.43;;
11488;SDS011;5801;50.804;12.638;2024-02-26T09:52:18;11.10;;;6.97;;
11488;SDS011;5801;50.804;12.638;2024-02-26T09:54:48;13.07;;;7.32;;
11488;SDS011;5801;50.804;12.638;2024-02-26T09:57:13;9.07;;;6.60;;
11488;SDS011;5801;50.804;12.638;2024-02-26T09:59:42;12.13;;;6.72;;
11488;SDS011;5801;50.804;12.638;2024-02-26T10:02:10;9.63;;;6.28;;
11488;SDS011;5801;50.804;12.638;2024-02-26T10:04:41;9.13;;;6.53;;
11488;SDS011;5801;50.804;12.638;2024-02-26T10:07:11;7.82;;;5.95;;
11488;SDS011;5801;50.804;12.638;2024-02-26T10:09:38;12.45;;;6.80;;
11488;SDS011;5801;50.804;12.638;2024-02-26T10:12:05;9.38;;;6.90;;
11488;SDS011;5801;50.804;12.638;2024-02-26T10:14:34;15.15;;;6.68;;
11488;SDS011;5801;50.804;12.638;2024-02-26T10:17:01;10.30;;;6.78;;
11488;SDS011;5801;50.804;12.638;2024-02-26T10:19:28;10.13;;;6.88;;
11488;SDS011;5801;50.804;12.638;2024-02-26T10:21:58;9.75;;;6.50;;
11488;SDS011;5801;50.804;12.638;2024-02-26T10:24:25;20.65;;;6.15;;
11488;SDS011;5801;50.804;12.638;2024-02-26T10:26:52;10.63;;;6.10;;
11488;SDS011;5801;50.804;12.638;2024-02-26T10:29:19;12.88;;;6.65;;
11488;SDS011;5801;50.804;12.638;2024-02-26T10:31:46;11.05;;;6.03;;
11488;SDS011;5801;50.804;12.638;2024-02-26T10:34:11;11.30;;;6.75;;
11488;SDS011;5801;50.804;12.638;2024-02-26T10:36:38;10.23;;;6.68;;
11488;SDS011;5801;50.804;12.638;2024-02-26T10:39:06;11.63;;;7.15;;
11488;SDS011;5801;50.804;12.638;2024-02-26T10:41:35;8.20;;;6.43;;
11488;SDS011;5801;50.804;12.638;2024-02-26T10:44:01;10.07;;;6.15;;
11488;SDS011;5801;50.804;12.638;2024-02-26T10:46:27;8.82;;;6.25;;
11488;SDS011;5801;50.804;12.638;2024-02-26T10:48:53;10.10;;;5.93;;
11488;SDS011;5801;50.804;12.638;2024-02-26T10:51:20;9.10;;;6.20;;
11488;SDS011;5801;50.804;12.638;2024-02-26T10:53:56;7.40;;;5.65;;
11488;SDS011;5801;50.804;12.638;2024-02-26T10:56:28;8.55;;;5.72;;
11488;SDS011;5801;50.804;12.638;2024-02-26T10:58:54;9.27;;;6.30;;
11488;SDS011;5801;50.804;12.638;2024-02-26T11:01:21;9.20;;;5.53;;
11488;SDS011;5801;50.804;12.638;2024-02-26T11:03:50;8.85;;;5.78;;
11488;SDS011;5801;50.804;12.638;2024-02-26T11:06:21;10.25;;;6.32;;
11488;SDS011;5801;50.804;12.638;2024-02-26T11:08:50;9.27;;;6.22;;
11488;SDS011;5801;50.804;12.638;2024-02-26T11:11:16;9.52;;;5.90;;
11488;SDS011;5801;50.804;12.638;2024-02-26T11:13:48;6.40;;;5.28;;
11488;SDS011;5801;50.804;12.638;2024-02-26T11:16:18;8.57;;;5.75;;
11488;SDS011;5801;50.804;12.638;2024-02-26T11:18:46;8.35;;;5.47;;
11488;SDS011;5801;50.804;12.638;2024-02-26T11:21:15;8.25;;;5.53;;
11488;SDS011;5801;50.804;12.638;2024-02-26T11:23:43;8.65;;;5.25;;
11488;SDS011;5801;50.804;12.638;2024-02-26T11:26:11;9.48;;;4.40;;
11488;SDS011;5801;50.804;12.638;2024-02-26T11:28:38;8.25;;;5.30;;
11488;SDS011;5801;50.804;12.638;2024-02-26T11:31:05;5.43;;;3.72;;
11488;SDS011;5801;50.804;12.638;2024-02-26T11:33:32;7.00;;;4.22;;
11488;SDS011;5801;50.804;12.638;2024-02-26T11:36:00;5.05;;;3.08;;
11488;SDS011;5801;50.804;12.638;2024-02-26T11:38:27;5.18;;;2.47;;
11488;SDS011;5801;50.804;12.638;2024-02-26T11:40:53;4.63;;;2.53;;
11488;SDS011;5801;50.804;12.638;2024-02-26T11:46:30;4.60;;;2.63;;
11488;SDS011;5801;50.804;12.638;2024-02-26T11:48:59;4.32;;;2.92;;
11488;SDS011;5801;50.804;12.638;2024-02-26T11:51:32;6.10;;;2.90;;
11488;SDS011;5801;50.804;12.638;2024-02-26T11:54:00;6.13;;;2.88;;
11488;SDS011;5801;50.804;12.638;2024-02-26T11:56:26;3.65;;;2.55;;
11488;SDS011;5801;50.804;12.638;2024-02-26T11:59:37;4.50;;;2.55;;
11488;SDS011;5801;50.804;12.638;2024-02-26T12:02:02;6.43;;;3.17;;
11488;SDS011;5801;50.804;12.638;2024-02-26T12:04:29;5.28;;;2.95;;
11488;SDS011;5801;50.804;12.638;2024-02-26T12:06:56;4.25;;;3.10;;
11488;SDS011;5801;50.804;12.638;2024-02-26T12:09:35;5.55;;;2.42;;
11488;SDS011;5801;50.804;12.638;2024-02-26T12:12:03;3.53;;;2.55;;
11488;SDS011;5801;50.804;12.638;2024-02-26T12:14:32;3.70;;;2.92;;
11488;SDS011;5801;50.804;12.638;2024-02-26T12:17:03;5.05;;;2.80;;
11488;SDS011;5801;50.804;12.638;2024-02-26T12:19:32;4.75;;;2.85;;
11488;SDS011;5801;50.804;12.638;2024-02-26T12:21:59;5.15;;;3.10;;
11488;SDS011;5801;50.804;12.638;2024-02-26T12:24:25;4.68;;;3.20;;
11488;SDS011;5801;50.804;12.638;2024-02-26T12:26:51;3.55;;;3.13;;
11488;SDS011;5801;50.804;12.638;2024-02-26T12:29:17;2.53;;;2.22;;
11488;SDS011;5801;50.804;12.638;2024-02-26T12:31:43;3.50;;;2.78;;
11488;SDS011;5801;50.804;12.638;2024-02-26T12:34:09;4.15;;;2.25;;
11488;SDS011;5801;50.804;12.638;2024-02-26T12:36:35;3.25;;;2.22;;
11488;SDS011;5801;50.804;12.638;2024-02-26T12:39:02;4.97;;;2.88;;
11488;SDS011;5801;50.804;12.638;2024-02-26T12:41:30;4.38;;;2.35;;
11488;SDS011;5801;50.804;12.638;2024-02-26T12:43:57;6.28;;;2.50;;
11488;SDS011;5801;50.804;12.638;2024-02-26T12:46:24;3.10;;;2.10;;
11488;SDS011;5801;50.804;12.638;2024-02-26T12:48:50;3.33;;;2.35;;
11488;SDS011;5801;50.804;12.638;2024-02-26T12:51:16;3.10;;;2.22;;
11488;SDS011;5801;50.804;12.638;2024-02-26T12:53:43;4.13;;;2.55;;
11488;SDS011;5801;50.804;12.638;2024-02-26T12:56:10;3.78;;;2.50;;
11488;SDS011;5801;50.804;12.638;2024-02-26T12:58:39;4.35;;;2.50;;
11488;SDS011;5801;50.804;12.638;2024-02-26T13:01:06;2.25;;;2.05;;
11488;SDS011;5801;50.804;12.638;2024-02-26T13:03:33;2.15;;;1.90;;
11488;SDS011;5801;50.804;12.638;2024-02-26T13:06:00;3.60;;;2.63;;
11488;SDS011;5801;50.804;12.638;2024-02-26T13:08:27;4.25;;;2.28;;
11488;SDS011;5801;50.804;12.638;2024-02-26T13:10:53;2.83;;;2.05;;
11488;SDS011;5801;50.804;12.638;2024-02-26T13:13:19;3.20;;;2.47;;
11488;SDS011;5801;50.804;12.638;2024-02-26T13:15:45;2.75;;;1.88;;
11488;SDS011;5801;50.804;12.638;2024-02-26T13:18:12;5.72;;;2.53;;
11488;SDS011;5801;50.804;12.638;2024-02-26T13:20:39;3.78;;;2.35;;
11488;SDS011;5801;50.804;12.638;2024-02-26T13:23:11;4.50;;;2.63;;
11488;SDS011;5801;50.804;12.638;2024-02-26T13:25:37;3.50;;;2.55;;
11488;SDS011;5801;50.804;12.638;2024-02-26T13:28:08;6.55;;;3.88;;
11488;SDS011;5801;50.804;12.638;2024-02-26T13:30:40;6.75;;;3.47;;
11488;SDS011;5801;50.804;12.638;2024-02-26T13:33:10;7.22;;;4.53;;
11488;SDS011;5801;50.804;12.638;2024-02-26T13:35:37;7.38;;;4.18;;
11488;SDS011;5801;50.804;12.638;2024-02-26T13:38:04;5.63;;;3.50;;
11488;SDS011;5801;50.804;12.638;2024-02-26T13:40:31;5.95;;;3.63;;
11488;SDS011;5801;50.804;12.638;2024-02-26T13:42:57;4.68;;;3.05;;
11488;SDS011;5801;50.804;12.638;2024-02-26T13:45:23;5.60;;;3.10;;
11488;SDS011;5801;50.804;12.638;2024-02-26T13:47:49;4.25;;;2.38;;
11488;SDS011;5801;50.804;12.638;2024-02-26T13:50:15;4.60;;;3.00;;
11488;SDS011;5801;50.804;12.638;2024-02-26T13:52:41;3.50;;;3.00;;
11488;SDS011;5801;50.804;12.638;2024-02-26T13:55:08;3.30;;;2.63;;
11488;SDS011;5801;50.804;12.638;2024-02-26T13:57:34;4.93;;;3.00;;
11488;SDS011;5801;50.804;12.638;2024-02-26T14:00:00;7.38;;;3.53;;
11488;SDS011;5801;50.804;12.638;2024-02-26T14:02:26;4.40;;;2.85;;
11488;SDS011;5801;50.804;12.638;2024-02-26T14:04:52;4.32;;;2.97;;
11488;SDS011;5801;50.804;12.638;2024-02-26T14:07:18;4.28;;;3.17;;
11488;SDS011;5801;50.804;12.638;2024-02-26T14:09:44;7.68;;;3.42;;
11488;SDS011;5801;50.804;12.638;2024-02-26T14:12:10;4.45;;;3.10;;
11488;SDS011;5801;50.804;12.638;2024-02-26T14:14:36;4.85;;;3.70;;
11488;SDS011;5801;50.804;12.638;2024-02-26T14:17:04;5.55;;;3.70;;
11488;SDS011;5801;50.804;12.638;2024-02-26T14:19:30;5.05;;;3.97;;
11488;SDS011;5801;50.804;12.638;2024-02-26T14:21:56;5.40;;;3.55;;
11488;SDS011;5801;50.804;12.638;2024-02-26T14:24:22;5.03;;;3.65;;
11488;SDS011;5801;50.804;12.638;2024-02-26T14:26:48;6.00;;;4.03;;
11488;SDS011;5801;50.804;12.638;2024-02-26T14:29:14;6.78;;;3.63;;
11488;SDS011;5801;50.804;12.638;2024-02-26T14:31:41;6.20;;;4.43;;
11488;SDS011;5801;50.804;12.638;2024-02-26T14:34:07;8.13;;;4.45;;
11488;SDS011;5801;50.804;12.638;2024-02-26T14:36:34;5.30;;;3.67;;
11488;SDS011;5801;50.804;12.638;2024-02-26T14:39:00;5.68;;;4.47;;